Pellston, MI

7:56 PM EDT on July 30, 2015 (GMT -0400)
Creekside, 4 Miles WSW Bliss | | Change Station
CLOSE
Current Station
Personal Weather Station
Location: Bliss Township, MI
Elevation: 708 ft
Nearby Weather Stations
Active Advisory: Beach Hazard Statement

Elev 708 ft 45.65 °N, 84.92 °W | Updated 30 seconds ago

Clear
Clear
71.9 °F
Feels Like 77 °F
N
2.0
Wind Variable Wind from NW
Gusts 9.0 mph

Today
High -- | Low -- °F
--% Chance of Precip.
Yesterday
High -- | Low -- °F
Precip. -- in
6:20 AM 9:10 PM
Full, 100% visible
Pressure 29.88 in
Visibility 10.0 miles
Clouds Clear
Heat Index 77 °F
Dew Point 55 °F
Humidity 56%
Rainfall 0.00 in
Snow Depth Not available.
UV 1 out of 12
Pollen 7.10 out of 12
Air Quality Not available.
Flu Activity Not available.
METAR KPLN 302354Z AUTO 30008KT 10SM CLR 24/11 A2989 RMK AO2 SLP118 T02390106 10272 20239 50005

More Conditions Fewer Conditions

Pressure 29.88 in
Visibility 10.0 miles
Clouds Clear
Heat Index 77 °F
Dew Point 55 °F
Humidity 56%
Rainfall 0.00 in
Snow Depth Not available.
UV 1 out of 12
Pollen 7.10 out of 12
Air Quality Not available.
Flu Activity Not available.
METAR KPLN 302354Z AUTO 30008KT 10SM CLR 24/11 A2989 RMK AO2 SLP118 T02390106 10272 20239 50005

More Conditions Fewer Conditions

Nowcast | as of 7:00 PM EDT on July 30, 2015

At 8 PM...mostly clear. Temperature 73. West winds 5 mph. At 10 PM...mostly clear. Temperature 69. Light winds. At 12 am...mostly clear. Temperature 67. Light winds. At 2 am...mostly clear. Temperature 68. Light winds.

×

10-Day Weather Forecast

×

Almanac

Astronomy

Jul. 30, 2015 Rise Set
Actual Time
Civil Twilight
Nautical Twilight
Astronomical Twilight
Moon
Length of Visible Light
Length of Day
Tomorrow will be .
, % of the Moon is Illuminated

Today's Extremes

State Highs State Lows

Community

WunderPhotos

Upload Photos

1,842,543 photos uploaded!

WunderBlogs® & News

Nearby

Air Quality

  Air Quality AQ Index Pollutant
Not available.

Snow Depth

Station Depth Elevation

Earthquake Activity

City Distance Mag. Time & Date
Minimum magnitude displayed is 2.5.

Coastal Water Temperatures

Place Temperature

Stations

Nearby Weather Stations

Station Location Temp. Windchill Dew Point Humidity Wind Precip. Elev Updated Type
                   
Beach Hazard Statement
Statement as of 3:35 PM EDT on July 30, 2015

... Beach hazards statement remains in effect until midnight EDT
tonight...

* hazards... west winds gusting to 30 knots building waves of 3
to 5 feet producing hazardous swim conditions due to high
waves and dangerous currents.

* Timing... today through this evening.

* Location... beaches of Northern Lake Michigan... especially from
Grand Traverse Bay north to The Straits of Mackinac.

Precautionary/preparedness actions...

A high swim risk means life threatening waves and currents are
expected. Stay out of the water and stay away from dangerous
areas like piers and breakwalls.